Time;durP1;ratioP1;P1;durP2;ratioP2;P2;SDS_P1;SDS_P2;PMS_P1;PMS_P2;Temp;Humidity;BMP_temperature;BMP_pressure;BME280_temperature;BME280_humidity;BME280_pressure;Samples;Min_cycle;Max_cycle;Signal;HPM_P1;HPM_P2
2021/12/24 00:00:21;;;;;;;13.00;9.43;;;7.00;99.90;;;;;;10362566;28;20551;-75
2021/12/24 00:05:23;;;;;;;14.13;10.00;;;7.00;99.90;;;;;;10364627;28;20182;-75
2021/12/24 00:10:24;;;;;;;15.00;10.10;;;7.10;99.90;;;;;;10352977;28;20614;-75
2021/12/24 00:15:51;;;;;;;14.23;10.57;;;7.10;99.90;;;;;;10359487;28;20315;-75
2021/12/24 00:36:43;;;;;;;15.17;10.53;;;7.00;99.90;;;;;;10347369;28;20249;-75
2021/12/24 00:41:44;;;;;;;16.77;10.37;;;7.00;99.90;;;;;;10356008;28;20248;-75
2021/12/24 00:46:44;;;;;;;17.93;10.60;;;6.90;99.90;;;;;;10360873;28;20265;-76
2021/12/24 00:52:06;;;;;;;16.83;10.77;;;6.90;99.90;;;;;;10365374;28;20257;-77
2021/12/24 00:57:07;;;;;;;15.03;10.27;;;6.90;99.90;;;;;;10352717;28;20309;-75
2021/12/24 01:02:10;;;;;;;13.37;10.47;;;6.90;99.90;;;;;;10364644;28;20224;-75
2021/12/24 01:07:12;;;;;;;13.57;10.30;;;6.90;99.90;;;;;;10358209;28;20240;-75
2021/12/24 01:12:12;;;;;;;13.40;10.07;;;7.00;99.90;;;;;;10361889;28;20225;-74
2021/12/24 01:17:30;;;;;;;14.03;9.30;;;7.10;99.90;;;;;;10368507;28;20221;-75
2021/12/24 01:27:58;;;;;;;15.87;8.97;;;7.40;99.90;;;;;;10358403;28;20319;-74
2021/12/24 01:39:09;;;;;;;11.87;8.83;;;7.50;99.90;;;;;;10360568;28;20218;-75
2021/12/24 01:43:41;;;;;;;12.73;8.20;;;7.60;99.90;;;;;;10345275;28;20226;-75
2021/12/24 01:48:42;;;;;;;11.27;8.40;;;7.70;99.90;;;;;;10357496;28;20597;-75
2021/12/24 01:53:42;;;;;;;10.27;7.50;;;7.70;99.90;;;;;;10354374;28;20660;-74
2021/12/24 01:58:46;;;;;;;11.97;7.67;;;7.80;99.90;;;;;;10350127;28;20683;-74
2021/12/24 02:03:49;;;;;;;10.30;7.60;;;7.80;99.90;;;;;;10360496;28;20221;-74
2021/12/24 02:08:53;;;;;;;10.00;7.43;;;7.90;99.90;;;;;;10351054;28;20397;-74
2021/12/24 02:14:02;;;;;;;9.80;7.30;;;7.90;99.90;;;;;;10362666;28;20292;-74
2021/12/24 02:29:32;;;;;;;10.20;7.43;;;7.90;99.90;;;;;;10357199;28;20226;-75
2021/12/24 02:34:33;;;;;;;10.90;8.20;;;7.90;99.90;;;;;;10355904;28;20219;-74
2021/12/24 02:39:33;;;;;;;10.37;7.67;;;7.90;99.90;;;;;;10347395;28;20223;-74
2021/12/24 02:44:35;;;;;;;10.27;7.87;;;7.90;99.90;;;;;;10354559;28;20230;-74
2021/12/24 02:54:49;;;;;;;12.70;7.87;;;7.90;99.90;;;;;;10355417;28;20214;-75
2021/12/24 02:59:59;;;;;;;11.47;7.70;;;7.90;99.90;;;;;;10367258;28;21080;-73
2021/12/24 03:05:01;;;;;;;10.10;7.27;;;7.90;99.90;;;;;;10349180;28;20241;-74
2021/12/24 03:10:04;;;;;;;12.63;8.10;;;7.90;99.90;;;;;;10353564;28;20246;-74
2021/12/24 03:15:06;;;;;;;10.50;8.07;;;7.90;99.90;;;;;;10349932;28;20221;-74
2021/12/24 03:20:10;;;;;;;10.20;8.07;;;8.00;99.90;;;;;;10357001;28;20183;-74
2021/12/24 03:25:10;;;;;;;11.67;7.90;;;8.00;99.90;;;;;;10356044;28;20796;-74
2021/12/24 03:30:11;;;;;;;10.50;7.60;;;8.00;99.90;;;;;;10353984;28;20258;-74
2021/12/24 03:35:12;;;;;;;17.13;8.47;;;8.00;99.90;;;;;;10357919;28;20214;-75
2021/12/24 03:40:15;;;;;;;11.03;7.63;;;8.00;99.90;;;;;;10363086;28;20198;-73
2021/12/24 03:50:58;;;;;;;10.60;7.67;;;8.00;99.90;;;;;;10315763;28;20250;-73
2021/12/24 03:55:58;;;;;;;9.80;7.43;;;8.00;99.90;;;;;;10349460;28;20221;-76
2021/12/24 04:01:02;;;;;;;12.23;7.67;;;8.00;99.90;;;;;;10353885;28;20308;-74
2021/12/24 04:06:06;;;;;;;11.23;8.20;;;8.00;99.90;;;;;;10356316;28;20335;-74
2021/12/24 04:11:07;;;;;;;12.17;8.23;;;8.00;99.90;;;;;;10356400;28;20604;-75
2021/12/24 04:16:08;;;;;;;12.70;8.57;;;8.00;99.90;;;;;;10351450;28;20217;-74
2021/12/24 04:26:28;;;;;;;12.57;8.80;;;8.00;99.90;;;;;;10357857;28;20810;-75
2021/12/24 04:31:41;;;;;;;13.70;9.77;;;8.10;99.90;;;;;;10358628;28;20239;-75
2021/12/24 04:37:28;;;;;;;16.40;10.03;;;8.10;99.90;;;;;;10343822;28;20314;-75
2021/12/24 05:03:14;;;;;;;14.93;11.27;;;8.00;99.90;;;;;;10345878;28;20221;-75
2021/12/24 05:08:28;;;;;;;15.23;11.93;;;7.90;99.90;;;;;;10357073;28;20230;-75
2021/12/24 05:13:31;;;;;;;18.23;12.60;;;7.90;99.90;;;;;;10353588;28;20206;-74
2021/12/24 05:18:58;;;;;;;17.80;12.03;;;7.90;99.90;;;;;;10343013;28;20349;-74
2021/12/24 05:23:52;;;;;;;17.03;11.93;;;7.90;99.90;;;;;;10350879;28;20218;-75
2021/12/24 05:28:53;;;;;;;16.83;11.97;;;7.90;99.90;;;;;;10356771;28;20705;-75
2021/12/24 05:33:54;;;;;;;19.37;12.90;;;7.90;99.90;;;;;;10364018;28;20240;-74
2021/12/24 05:38:57;;;;;;;20.07;12.73;;;7.80;99.90;;;;;;10357918;28;20226;-75
2021/12/24 05:43:59;;;;;;;18.60;13.33;;;7.80;99.90;;;;;;10355371;28;20259;-74
2021/12/24 05:48:59;;;;;;;17.07;12.43;;;7.80;99.90;;;;;;10360682;28;20223;-73
2021/12/24 05:54:01;;;;;;;21.70;12.43;;;7.80;99.90;;;;;;10353271;28;20655;-75
2021/12/24 05:59:01;;;;;;;15.63;12.80;;;7.90;99.90;;;;;;10353860;28;20285;-74
2021/12/24 06:04:05;;;;;;;18.93;13.40;;;7.90;99.90;;;;;;10360406;28;20244;-75
2021/12/24 06:09:06;;;;;;;16.93;12.50;;;7.90;99.90;;;;;;10353780;28;20321;-74
2021/12/24 06:14:11;;;;;;;20.00;12.70;;;7.90;99.90;;;;;;10354757;28;20998;-75
2021/12/24 06:19:12;;;;;;;17.13;12.70;;;7.90;99.90;;;;;;10361609;28;20219;-75
2021/12/24 06:24:13;;;;;;;18.43;13.10;;;8.00;99.90;;;;;;10360226;28;20273;-75
2021/12/24 06:29:14;;;;;;;17.53;12.40;;;8.00;99.90;;;;;;10354902;28;20219;-74
2021/12/24 06:34:15;;;;;;;19.43;13.83;;;8.00;99.90;;;;;;10357549;28;20235;-73
2021/12/24 06:39:16;;;;;;;16.70;11.80;;;8.00;99.90;;;;;;10361302;28;20274;-74
2021/12/24 06:44:16;;;;;;;18.70;12.73;;;8.10;99.90;;;;;;10349111;28;20222;-74
2021/12/24 06:49:18;;;;;;;17.90;13.17;;;8.10;99.90;;;;;;10352817;28;20291;-74
2021/12/24 06:54:19;;;;;;;17.43;12.93;;;8.10;99.90;;;;;;10355002;28;20313;-74
2021/12/24 06:59:20;;;;;;;19.37;13.53;;;8.00;99.90;;;;;;10346769;28;20583;-75
2021/12/24 07:04:20;;;;;;;20.07;12.90;;;8.00;99.90;;;;;;10366497;28;20236;-75
2021/12/24 07:09:22;;;;;;;18.57;13.70;;;7.90;99.90;;;;;;10360806;28;20227;-75
2021/12/24 07:14:27;;;;;;;18.63;13.93;;;7.70;99.90;;;;;;10360943;28;20297;-75
2021/12/24 07:19:28;;;;;;;16.37;12.53;;;7.80;99.90;;;;;;10361631;28;20252;-75
2021/12/24 07:24:29;;;;;;;19.50;13.53;;;7.80;99.90;;;;;;10356327;28;20245;-74
2021/12/24 07:29:32;;;;;;;16.80;12.70;;;7.80;99.90;;;;;;10361200;28;20226;-76
2021/12/24 07:34:33;;;;;;;18.83;13.47;;;7.80;99.90;;;;;;10346093;28;20611;-75
2021/12/24 07:39:34;;;;;;;19.47;13.20;;;7.90;99.90;;;;;;10360784;28;20227;-75
2021/12/24 07:44:39;;;;;;;19.13;13.13;;;7.90;99.90;;;;;;10356991;28;20220;-78
2021/12/24 07:49:41;;;;;;;20.20;14.33;;;7.90;99.90;;;;;;10351946;28;20221;-75
2021/12/24 07:54:48;;;;;;;16.53;12.93;;;7.90;99.90;;;;;;10349247;28;20223;-73
2021/12/24 07:59:52;;;;;;;20.47;13.37;;;7.90;99.90;;;;;;10364828;28;20213;-75
2021/12/24 08:04:53;;;;;;;16.80;13.10;;;7.90;99.90;;;;;;10354182;28;20224;-74
2021/12/24 08:09:57;;;;;;;17.67;12.93;;;8.00;99.90;;;;;;10350006;28;20588;-75
2021/12/24 08:14:57;;;;;;;18.03;12.37;;;8.10;99.90;;;;;;10360434;28;20235;-75
2021/12/24 08:20:01;;;;;;;19.70;12.27;;;8.10;99.90;;;;;;10363913;28;20614;-75
2021/12/24 08:25:05;;;;;;;13.90;11.57;;;8.20;99.90;;;;;;10347097;28;20220;-74
2021/12/24 08:30:08;;;;;;;18.60;12.80;;;8.20;99.90;;;;;;10339329;28;20826;-74
2021/12/24 08:35:16;;;;;;;18.73;12.13;;;8.30;99.90;;;;;;10344150;28;20198;-75
2021/12/24 08:40:19;;;;;;;19.83;12.90;;;8.30;99.90;;;;;;10347885;28;20200;-75
2021/12/24 08:45:20;;;;;;;17.77;12.27;;;8.30;99.90;;;;;;10352361;28;20261;-74
2021/12/24 08:50:20;;;;;;;18.77;12.90;;;8.40;99.90;;;;;;10351622;28;20227;-74
2021/12/24 08:55:21;;;;;;;17.93;12.10;;;8.40;99.90;;;;;;10351832;28;20226;-75
2021/12/24 09:00:23;;;;;;;17.63;12.03;;;8.50;99.90;;;;;;10350425;28;20278;-75
2021/12/24 09:05:24;;;;;;;15.53;11.20;;;8.50;99.90;;;;;;10351023;28;20231;-74
2021/12/24 09:10:25;;;;;;;16.70;11.07;;;8.50;99.90;;;;;;10365762;28;20307;-74
2021/12/24 09:15:29;;;;;;;16.10;11.00;;;8.60;99.90;;;;;;10354502;28;20246;-75
2021/12/24 09:20:39;;;;;;;18.43;11.13;;;8.70;99.90;;;;;;10380857;28;20648;-74
2021/12/24 09:25:40;;;;;;;21.57;12.70;;;8.80;99.90;;;;;;10364511;28;20224;-74
2021/12/24 09:30:42;;;;;;;15.53;10.47;;;8.90;99.90;;;;;;10364502;28;20311;-75
2021/12/24 09:35:43;;;;;;;14.70;11.07;;;9.00;99.90;;;;;;10370496;28;20232;-75
2021/12/24 09:40:43;;;;;;;15.13;10.23;;;9.00;99.90;;;;;;10371089;28;20224;-75
2021/12/24 09:45:44;;;;;;;16.30;11.47;;;9.00;99.90;;;;;;10363627;28;20291;-74
2021/12/24 09:50:45;;;;;;;14.43;10.77;;;9.00;99.90;;;;;;10364026;28;20232;-75
2021/12/24 09:55:46;;;;;;;14.17;10.77;;;9.10;99.90;;;;;;10358432;28;20237;-75
2021/12/24 10:00:46;;;;;;;14.40;10.90;;;9.10;99.90;;;;;;10355211;28;20235;-75
2021/12/24 10:05:47;;;;;;;16.17;10.77;;;9.20;99.90;;;;;;10349704;28;20594;-75
2021/12/24 10:11:15;;;;;;;13.50;10.30;;;9.20;99.90;;;;;;10353902;28;20224;-75
2021/12/24 10:16:22;;;;;;;17.00;11.40;;;9.20;99.90;;;;;;10352481;28;20227;-74
2021/12/24 10:21:26;;;;;;;18.87;11.60;;;9.20;99.90;;;;;;10355110;28;20286;-74
2021/12/24 10:26:36;;;;;;;16.57;11.67;;;9.20;99.90;;;;;;10369991;28;20308;-75
2021/12/24 10:31:43;;;;;;;16.07;11.13;;;9.30;99.90;;;;;;10347977;28;20791;-74
2021/12/24 10:36:49;;;;;;;15.27;10.90;;;9.30;99.90;;;;;;10353626;28;20938;-74
2021/12/24 10:41:52;;;;;;;14.63;10.53;;;9.30;99.90;;;;;;10352956;28;20216;-75
2021/12/24 10:46:57;;;;;;;14.53;10.33;;;9.30;99.90;;;;;;10346152;28;20255;-75
2021/12/24 10:57:25;;;;;;;12.83;10.13;;;9.20;99.90;;;;;;10348233;28;20221;-74
2021/12/24 11:02:32;;;;;;;12.23;9.63;;;9.10;99.90;;;;;;10356881;28;20635;-74
2021/12/24 11:07:35;;;;;;;15.43;10.80;;;9.00;99.90;;;;;;10344940;28;20231;-74
2021/12/24 11:12:38;;;;;;;19.47;12.77;;;8.90;99.90;;;;;;10352725;28;20232;-74
2021/12/24 11:17:39;;;;;;;14.10;10.47;;;8.90;99.90;;;;;;10345672;28;20224;-74
2021/12/24 11:22:49;;;;;;;13.33;10.00;;;8.90;99.90;;;;;;10351452;28;20357;-74
2021/12/24 11:27:51;;;;;;;13.47;9.87;;;8.90;99.90;;;;;;10353455;28;20221;-74
2021/12/24 11:32:52;;;;;;;14.07;9.80;;;9.00;99.90;;;;;;10352001;28;20228;-74
2021/12/24 11:37:53;;;;;;;13.60;10.20;;;9.10;99.90;;;;;;10343718;28;20683;-74
2021/12/24 11:42:59;;;;;;;13.87;9.60;;;9.20;99.90;;;;;;10347470;28;20224;-74
2021/12/24 11:48:01;;;;;;;11.03;8.57;;;9.30;99.90;;;;;;10355392;28;20673;-74
2021/12/24 11:53:08;;;;;;;10.20;8.57;;;9.40;99.90;;;;;;10354323;28;20238;-74
2021/12/24 11:58:17;;;;;;;11.43;8.77;;;9.50;99.90;;;;;;10346331;28;20719;-75
2021/12/24 12:03:49;;;;;;;11.63;8.57;;;9.50;99.90;;;;;;10350835;28;20239;-75
2021/12/24 12:08:57;;;;;;;9.97;8.00;;;9.60;99.90;;;;;;10345568;28;20278;-75
2021/12/24 12:14:10;;;;;;;12.40;8.13;;;9.80;99.90;;;;;;10347791;28;20232;-74
2021/12/24 12:24:59;;;;;;;10.00;7.37;;;9.70;99.90;;;;;;10341392;28;20310;-75
2021/12/24 12:30:23;;;;;;;8.57;7.37;;;9.60;99.90;;;;;;10347313;28;20235;-74
2021/12/24 12:35:44;;;;;;;8.63;6.80;;;9.40;99.90;;;;;;10324984;28;20228;-76
2021/12/24 12:40:45;;;;;;;10.90;7.33;;;9.40;99.90;;;;;;10366105;28;20211;-75
2021/12/24 12:45:47;;;;;;;11.37;7.17;;;9.30;99.90;;;;;;10375896;28;20307;-75
2021/12/24 12:50:59;;;;;;;7.87;6.73;;;9.30;99.90;;;;;;10367654;28;20227;-75
2021/12/24 12:56:20;;;;;;;8.80;6.83;;;9.40;99.90;;;;;;10367606;28;20275;-75
2021/12/24 13:01:21;;;;;;;9.00;7.50;;;9.50;99.90;;;;;;10361576;28;20230;-75
2021/12/24 13:06:50;;;;;;;7.13;5.97;;;9.50;99.90;;;;;;10360961;28;20235;-75
2021/12/24 13:11:54;;;;;;;7.70;6.00;;;9.50;99.90;;;;;;10372639;28;20249;-75
2021/12/24 13:17:17;;;;;;;7.60;6.00;;;9.40;99.90;;;;;;10364154;28;20221;-75
2021/12/24 13:22:30;;;;;;;9.57;6.37;;;9.40;99.90;;;;;;10361379;28;20738;-74
2021/12/24 13:27:38;;;;;;;9.67;5.33;;;9.40;99.90;;;;;;10363612;28;20224;-75
2021/12/24 13:32:51;;;;;;;6.30;5.03;;;9.30;99.90;;;;;;10354629;28;20241;-74
2021/12/24 13:37:54;;;;;;;6.93;5.17;;;9.30;99.90;;;;;;10359719;28;20354;-74
2021/12/24 13:43:06;;;;;;;7.60;5.37;;;9.30;99.90;;;;;;10362094;28;20314;-74
2021/12/24 13:48:13;;;;;;;5.00;4.50;;;9.30;99.90;;;;;;10353125;28;20242;-74
2021/12/24 13:58:32;;;;;;;5.23;4.10;;;9.30;99.90;;;;;;10350028;28;20480;-75
2021/12/24 14:03:34;;;;;;;5.40;4.20;;;9.30;99.90;;;;;;10356532;28;20879;-76
2021/12/24 14:08:37;;;;;;;4.37;3.97;;;9.20;99.90;;;;;;10366141;28;20244;-75
2021/12/24 14:13:44;;;;;;;4.47;3.70;;;9.20;99.90;;;;;;10371816;28;20221;-74
2021/12/24 14:18:52;;;;;;;4.57;3.93;;;9.20;99.90;;;;;;10347023;28;20216;-75
2021/12/24 14:24:07;;;;;;;4.47;4.07;;;9.20;99.90;;;;;;10352298;28;20232;-75
2021/12/24 14:29:08;;;;;;;4.63;3.43;;;9.20;99.90;;;;;;10361570;28;20225;-75
2021/12/24 14:34:09;;;;;;;6.70;4.10;;;9.20;99.90;;;;;;10359042;28;20216;-76
2021/12/24 14:39:16;;;;;;;4.13;3.73;;;9.20;99.90;;;;;;10349633;28;20366;-75
2021/12/24 14:44:29;;;;;;;4.20;3.80;;;9.10;99.90;;;;;;10351752;28;20300;-76
2021/12/24 14:49:32;;;;;;;5.00;4.00;;;9.10;99.90;;;;;;10346530;28;20270;-75
2021/12/24 14:54:33;;;;;;;4.20;3.70;;;9.10;99.90;;;;;;10346046;28;20217;-75
2021/12/24 14:59:39;;;;;;;4.47;4.07;;;9.10;99.90;;;;;;10349938;28;20217;-75
2021/12/24 15:04:40;;;;;;;4.73;4.03;;;9.10;99.90;;;;;;10347241;28;20227;-75
2021/12/24 15:09:40;;;;;;;4.83;4.33;;;9.10;99.90;;;;;;10370089;28;20592;-75
2021/12/24 15:14:41;;;;;;;4.40;4.00;;;9.10;99.90;;;;;;10351249;28;20287;-74
2021/12/24 15:19:41;;;;;;;5.30;4.60;;;9.10;99.90;;;;;;10360838;28;20240;-75
2021/12/24 15:24:42;;;;;;;5.70;4.70;;;9.10;99.90;;;;;;10348809;28;20220;-75
2021/12/24 15:29:49;;;;;;;6.73;5.10;;;9.00;99.90;;;;;;10350368;28;20702;-74
2021/12/24 15:34:50;;;;;;;5.97;4.80;;;9.00;99.90;;;;;;10345452;28;20730;-75
2021/12/24 15:39:50;;;;;;;4.80;4.40;;;9.00;99.90;;;;;;10349395;28;20227;-75
2021/12/24 15:44:51;;;;;;;4.90;4.30;;;8.90;99.90;;;;;;10351269;28;20236;-74
2021/12/24 15:49:51;;;;;;;4.50;4.10;;;8.90;99.90;;;;;;10353067;28;20652;-74
2021/12/24 15:54:52;;;;;;;5.23;4.73;;;8.90;99.90;;;;;;10347760;28;20341;-76
2021/12/24 15:59:52;;;;;;;6.67;4.63;;;8.80;99.90;;;;;;10353001;28;20245;-75
2021/12/24 16:04:53;;;;;;;7.17;5.27;;;8.90;99.90;;;;;;10349113;28;20303;-75
2021/12/24 16:09:53;;;;;;;6.00;5.00;;;8.90;99.90;;;;;;10345285;28;20219;-75
2021/12/24 16:14:56;;;;;;;5.73;5.00;;;8.90;99.90;;;;;;10354349;28;20220;-75
2021/12/24 16:19:57;;;;;;;6.50;5.30;;;8.90;99.90;;;;;;10349016;28;20223;-75
2021/12/24 16:24:58;;;;;;;6.43;5.77;;;8.90;99.90;;;;;;10345105;28;20218;-75
2021/12/24 16:30:01;;;;;;;7.17;5.60;;;8.90;99.90;;;;;;10351953;28;20231;-75
2021/12/24 16:35:10;;;;;;;8.53;6.37;;;8.90;99.90;;;;;;10346251;28;20230;-75
2021/12/24 16:40:18;;;;;;;7.83;6.17;;;8.90;99.90;;;;;;10345450;28;20228;-75
2021/12/24 16:45:25;;;;;;;7.87;6.90;;;8.90;99.90;;;;;;10356110;28;20234;-74
2021/12/24 16:50:26;;;;;;;7.23;6.53;;;8.90;99.90;;;;;;10350077;28;20258;-74
2021/12/24 16:55:28;;;;;;;8.10;6.53;;;8.90;99.90;;;;;;10342392;28;20233;-74
2021/12/24 17:00:31;;;;;;;7.67;6.57;;;8.90;99.90;;;;;;10341630;28;20230;-75
2021/12/24 17:05:32;;;;;;;8.53;6.40;;;8.90;99.90;;;;;;10349863;28;20224;-74
2021/12/24 17:10:34;;;;;;;7.30;6.33;;;8.80;99.90;;;;;;10348322;28;20237;-75
2021/12/24 17:15:35;;;;;;;8.20;7.10;;;8.80;99.90;;;;;;10342986;28;20642;-75
2021/12/24 17:20:36;;;;;;;8.50;6.87;;;8.80;99.90;;;;;;10357453;28;20274;-75
2021/12/24 17:25:38;;;;;;;11.23;8.63;;;8.80;99.90;;;;;;10356526;28;20222;-75
2021/12/24 17:30:38;;;;;;;10.03;8.77;;;8.80;99.90;;;;;;10351050;28;20776;-75
2021/12/24 17:35:39;;;;;;;13.00;10.07;;;8.80;99.90;;;;;;10361132;28;20311;-75
2021/12/24 17:40:40;;;;;;;18.20;12.60;;;8.70;99.90;;;;;;10361195;28;20247;-76
2021/12/24 17:45:42;;;;;;;15.07;12.10;;;8.70;99.90;;;;;;10356749;28;20729;-74
2021/12/24 17:50:42;;;;;;;15.77;12.00;;;8.60;99.90;;;;;;10367899;28;20232;-75
2021/12/24 17:55:46;;;;;;;14.30;12.07;;;8.50;99.90;;;;;;10363447;28;20753;-75
2021/12/24 18:00:49;;;;;;;17.00;12.90;;;8.50;99.90;;;;;;10357025;28;20301;-75
2021/12/24 18:05:50;;;;;;;17.83;13.77;;;8.40;99.90;;;;;;10353730;28;20249;-74
2021/12/24 18:10:51;;;;;;;20.03;14.17;;;8.40;99.90;;;;;;10362017;28;20729;-75
2021/12/24 18:15:51;;;;;;;18.27;14.20;;;8.40;99.90;;;;;;10358273;28;20355;-74
2021/12/24 18:20:56;;;;;;;17.20;14.83;;;8.40;99.90;;;;;;10358471;28;20725;-75
2021/12/24 18:25:56;;;;;;;18.03;14.60;;;8.40;99.90;;;;;;10356846;28;20363;-74
2021/12/24 18:30:57;;;;;;;16.17;13.73;;;8.50;99.90;;;;;;10351667;28;20313;-75
2021/12/24 18:35:58;;;;;;;16.73;14.23;;;8.40;99.90;;;;;;10353278;28;20940;-75
2021/12/24 18:40:59;;;;;;;16.70;13.93;;;8.40;99.90;;;;;;10349480;28;20649;-74
2021/12/24 18:46:00;;;;;;;18.03;14.63;;;8.40;99.90;;;;;;10353641;28;20311;-74
2021/12/24 18:51:01;;;;;;;17.73;14.90;;;8.40;99.90;;;;;;10359046;28;20227;-74
2021/12/24 18:56:03;;;;;;;17.40;14.43;;;8.40;99.90;;;;;;10350408;28;20655;-75
2021/12/24 19:01:05;;;;;;;17.53;15.20;;;8.40;99.90;;;;;;10358581;28;20690;-76
2021/12/24 19:06:06;;;;;;;17.50;15.47;;;8.40;99.90;;;;;;10354245;28;20259;-74
2021/12/24 19:11:06;;;;;;;18.20;14.77;;;8.40;99.90;;;;;;10348860;28;20225;-74
2021/12/24 19:16:10;;;;;;;19.97;17.30;;;8.50;99.90;;;;;;10356113;28;20339;-74
2021/12/24 19:21:11;;;;;;;18.43;16.03;;;8.50;99.90;;;;;;10359661;28;20216;-76
2021/12/24 19:26:12;;;;;;;23.83;19.23;;;8.50;99.90;;;;;;10361038;28;20276;-74
2021/12/24 19:31:14;;;;;;;18.40;15.20;;;8.50;99.90;;;;;;10350600;28;20224;-75
2021/12/24 19:36:14;;;;;;;18.13;15.63;;;8.50;99.90;;;;;;10364658;28;20283;-74
2021/12/24 19:41:16;;;;;;;17.83;15.93;;;8.60;99.90;;;;;;10369239;28;20243;-76
2021/12/24 19:46:16;;;;;;;18.00;15.93;;;8.50;99.90;;;;;;10366690;28;20256;-75
2021/12/24 19:51:20;;;;;;;18.67;16.43;;;8.50;99.90;;;;;;10350852;28;20255;-75
2021/12/24 19:56:24;;;;;;;17.97;16.03;;;8.50;99.90;;;;;;10358545;28;20335;-75
2021/12/24 20:01:24;;;;;;;19.77;15.70;;;8.50;99.90;;;;;;10360757;28;20222;-74
2021/12/24 20:06:25;;;;;;;17.77;15.87;;;8.50;99.90;;;;;;10354414;28;20216;-74
2021/12/24 20:11:26;;;;;;;16.87;15.03;;;8.50;99.90;;;;;;10366321;28;20223;-74
2021/12/24 20:16:27;;;;;;;19.97;16.90;;;8.50;99.90;;;;;;10351761;28;20244;-75
2021/12/24 20:21:28;;;;;;;21.07;17.60;;;8.50;99.90;;;;;;10350524;28;20224;-75
2021/12/24 20:26:28;;;;;;;18.77;15.63;;;8.50;99.90;;;;;;10343332;28;20224;-74
2021/12/24 20:31:29;;;;;;;19.87;16.20;;;8.50;99.90;;;;;;10358125;28;20251;-75
2021/12/24 20:36:30;;;;;;;19.50;16.13;;;8.50;99.90;;;;;;10349874;28;20274;-75
2021/12/24 20:41:31;;;;;;;21.53;18.10;;;8.50;99.90;;;;;;10341339;28;20628;-75
2021/12/24 20:46:31;;;;;;;19.60;17.50;;;8.50;99.90;;;;;;10357538;28;20318;-75
2021/12/24 20:51:32;;;;;;;23.53;20.33;;;8.50;99.90;;;;;;10352986;28;20792;-75
2021/12/24 20:56:33;;;;;;;21.07;18.07;;;8.50;99.90;;;;;;10367449;28;20909;-75
2021/12/24 21:01:34;;;;;;;19.50;16.77;;;8.50;99.90;;;;;;10350885;28;20655;-75
2021/12/24 21:06:35;;;;;;;19.67;16.60;;;8.50;99.90;;;;;;10359661;28;20232;-75
2021/12/24 21:11:42;;;;;;;21.30;18.17;;;8.40;99.90;;;;;;10358270;28;20236;-76
2021/12/24 21:16:43;;;;;;;20.53;17.23;;;8.40;99.90;;;;;;10363596;28;20234;-74
2021/12/24 21:21:44;;;;;;;20.80;16.97;;;8.40;99.90;;;;;;10358502;28;20225;-75
2021/12/24 21:26:45;;;;;;;20.00;16.20;;;8.40;99.90;;;;;;10355246;28;20228;-75
2021/12/24 21:31:49;;;;;;;18.80;16.63;;;8.30;99.90;;;;;;10357331;28;20311;-75
2021/12/24 21:36:50;;;;;;;22.33;18.20;;;8.30;99.90;;;;;;10361076;28;20268;-75
2021/12/24 21:41:51;;;;;;;18.53;16.57;;;8.30;99.90;;;;;;10360374;28;20257;-75
2021/12/24 21:46:53;;;;;;;18.47;16.40;;;8.30;99.90;;;;;;10356428;28;20234;-75
2021/12/24 21:51:54;;;;;;;17.63;15.10;;;8.30;99.90;;;;;;10361732;28;20235;-75
2021/12/24 21:56:56;;;;;;;21.23;18.23;;;8.30;99.90;;;;;;10356613;28;20304;-74
2021/12/24 22:01:57;;;;;;;17.53;15.63;;;8.20;99.90;;;;;;10350211;28;20224;-76
2021/12/24 22:12:17;;;;;;;18.80;16.43;;;8.30;99.90;;;;;;10349809;28;20232;-75
2021/12/24 22:17:21;;;;;;;20.23;17.10;;;8.30;99.90;;;;;;10364135;28;20224;-75
2021/12/24 22:22:31;;;;;;;23.13;19.07;;;8.30;99.90;;;;;;10356977;28;20225;-75
2021/12/24 22:27:37;;;;;;;18.60;16.63;;;8.30;99.90;;;;;;10357821;28;20688;-75
2021/12/24 22:32:38;;;;;;;20.30;17.83;;;8.30;99.90;;;;;;10365462;28;20239;-76
2021/12/24 22:37:39;;;;;;;21.67;18.97;;;8.30;99.90;;;;;;10354738;28;20871;-74
2021/12/24 22:42:40;;;;;;;20.93;17.67;;;8.30;99.90;;;;;;10354572;28;20223;-75
2021/12/24 22:47:41;;;;;;;20.40;18.20;;;8.30;99.90;;;;;;10353462;28;20331;-75
2021/12/24 22:52:57;;;;;;;20.63;18.47;;;8.30;99.90;;;;;;10353625;28;20229;-75
2021/12/24 22:58:11;;;;;;;22.93;20.00;;;8.30;99.90;;;;;;10358841;28;20291;-75
2021/12/24 23:03:17;;;;;;;24.97;18.70;;;8.20;99.90;;;;;;10352220;28;20251;-75
2021/12/24 23:08:19;;;;;;;21.43;19.13;;;8.20;99.90;;;;;;10355860;28;20773;-75
2021/12/24 23:13:25;;;;;;;20.10;17.40;;;8.20;99.90;;;;;;10352877;28;20327;-75
2021/12/24 23:18:27;;;;;;;18.10;16.13;;;8.20;99.90;;;;;;10356370;28;20224;-75
2021/12/24 23:23:32;;;;;;;20.57;17.43;;;8.20;99.90;;;;;;10360969;28;20810;-75
2021/12/24 23:28:34;;;;;;;19.37;16.80;;;8.20;99.90;;;;;;10361035;28;20288;-74
2021/12/24 23:33:35;;;;;;;18.93;16.43;;;8.20;99.90;;;;;;10350642;28;20251;-75
2021/12/24 23:38:36;;;;;;;19.20;17.20;;;8.20;99.90;;;;;;10352259;28;20227;-75
2021/12/24 23:43:46;;;;;;;18.10;16.20;;;8.30;99.90;;;;;;10351462;28;20566;-75
2021/12/24 23:48:47;;;;;;;17.87;15.93;;;8.30;99.90;;;;;;10358444;28;20226;-75
2021/12/24 23:53:47;;;;;;;17.73;15.83;;;8.20;99.90;;;;;;10346061;28;20238;-75
2021/12/24 23:58:48;;;;;;;19.87;16.03;;;8.20;99.90;;;;;;10366031;28;20218;-74
